createdAt,value
2017-10-20T00:00:15.631Z,9.00
2017-10-20T00:02:43.419Z,8.80
2017-10-20T00:05:11.179Z,8.70
2017-10-20T00:07:38.949Z,8.60
2017-10-20T00:10:07.313Z,8.60
2017-10-20T00:12:35.046Z,8.60
2017-10-20T00:15:02.892Z,8.90
2017-10-20T00:17:31.441Z,8.70
2017-10-20T00:19:59.302Z,8.70
2017-10-20T00:22:27.065Z,8.70
2017-10-20T00:24:54.873Z,8.90
2017-10-20T00:27:23.416Z,9.00
2017-10-20T00:29:52.000Z,9.30
2017-10-20T00:32:19.847Z,9.20
2017-10-20T00:34:47.743Z,8.90
2017-10-20T00:37:15.703Z,8.70
2017-10-20T00:39:43.568Z,8.50
2017-10-20T00:42:11.517Z,8.40
2017-10-20T00:44:39.407Z,8.30
2017-10-20T00:47:07.378Z,8.30
2017-10-20T00:49:35.323Z,8.30
2017-10-20T00:52:03.243Z,8.20
2017-10-20T00:54:32.715Z,8.20
2017-10-20T00:57:00.672Z,8.20
2017-10-20T00:59:28.543Z,8.10
2017-10-20T01:01:56.496Z,8.20
2017-10-20T01:04:24.274Z,8.10
2017-10-20T01:06:52.091Z,8.10
2017-10-20T01:09:19.915Z,8.00
2017-10-20T01:11:47.781Z,7.90
2017-10-20T01:14:15.566Z,7.90
2017-10-20T01:16:44.135Z,8.10
2017-10-20T01:19:12.740Z,8.10
2017-10-20T01:21:41.515Z,8.20
2017-10-20T01:24:09.338Z,8.20
2017-10-20T01:26:37.431Z,8.20
2017-10-20T01:29:05.405Z,8.00
2017-10-20T01:31:33.262Z,8.00
2017-10-20T01:34:01.238Z,8.20
2017-10-20T01:36:29.062Z,8.20
2017-10-20T01:38:56.941Z,8.40
2017-10-20T01:41:24.941Z,8.50
2017-10-20T01:43:52.771Z,8.60
2017-10-20T01:46:20.677Z,8.50
2017-10-20T01:48:48.622Z,8.20
2017-10-20T01:51:16.592Z,8.30
2017-10-20T01:53:44.483Z,8.50
2017-10-20T01:56:12.303Z,8.50
2017-10-20T01:58:40.421Z,8.50
2017-10-20T02:01:08.165Z,8.40
2017-10-20T02:03:35.986Z,8.20
2017-10-20T02:06:04.024Z,8.00
2017-10-20T02:08:31.988Z,7.90
2017-10-20T02:10:59.855Z,7.80
2017-10-20T02:13:27.824Z,7.70
2017-10-20T02:15:55.872Z,7.70
2017-10-20T02:18:23.651Z,7.70
2017-10-20T02:20:51.427Z,7.70
2017-10-20T02:23:19.282Z,7.60
2017-10-20T02:25:47.760Z,7.50
2017-10-20T02:28:15.715Z,7.40
2017-10-20T02:30:43.582Z,7.60
2017-10-20T02:33:11.880Z,7.60
2017-10-20T02:35:39.846Z,7.70
2017-10-20T02:38:07.917Z,8.00
2017-10-20T02:40:35.892Z,8.40
2017-10-20T02:43:03.937Z,8.40
2017-10-20T02:45:31.714Z,8.30
2017-10-20T02:47:59.451Z,8.20
2017-10-20T02:50:27.290Z,8.20
2017-10-20T02:52:55.110Z,8.30
2017-10-20T02:55:22.881Z,8.30
2017-10-20T02:57:51.151Z,8.50
2017-10-20T03:00:19.124Z,8.70
2017-10-20T03:02:47.074Z,8.70
2017-10-20T03:05:16.387Z,8.90
2017-10-20T03:07:44.160Z,8.90
2017-10-20T03:10:12.208Z,8.80
2017-10-20T03:12:40.277Z,8.60
2017-10-20T03:15:08.141Z,8.70
2017-10-20T03:17:35.863Z,8.70
2017-10-20T03:20:03.668Z,8.50
2017-10-20T03:22:31.525Z,8.60
2017-10-20T03:24:59.321Z,8.70
2017-10-20T03:27:27.183Z,8.80
2017-10-20T03:29:55.518Z,8.70
2017-10-20T03:32:23.332Z,8.80
2017-10-20T03:34:51.093Z,8.90
2017-10-20T03:37:18.854Z,9.00
2017-10-20T03:39:46.717Z,8.90
2017-10-20T03:42:14.671Z,9.00
2017-10-20T03:44:42.539Z,8.90
2017-10-20T03:47:10.274Z,9.00
2017-10-20T03:49:38.007Z,8.90
2017-10-20T03:52:06.209Z,8.80
2017-10-20T03:54:33.955Z,8.80
2017-10-20T03:57:02.505Z,8.90
2017-10-20T03:59:30.267Z,8.90
2017-10-20T04:01:58.050Z,8.90
2017-10-20T04:04:26.104Z,8.90
2017-10-20T04:06:54.637Z,8.90
2017-10-20T04:09:22.542Z,8.90
2017-10-20T04:11:50.451Z,8.90
2017-10-20T04:14:19.038Z,8.90
2017-10-20T04:16:47.820Z,9.10
2017-10-20T04:19:16.573Z,9.20
2017-10-20T04:21:44.547Z,9.20
2017-10-20T04:24:12.419Z,9.20
2017-10-20T04:26:40.208Z,9.10
2017-10-20T04:29:08.792Z,9.30
2017-10-20T04:31:38.366Z,9.40
2017-10-20T04:34:06.179Z,9.40
2017-10-20T04:36:34.112Z,9.40
2017-10-20T04:39:02.280Z,9.50
2017-10-20T04:41:30.147Z,9.50
2017-10-20T04:43:58.011Z,9.50
2017-10-20T04:46:26.781Z,9.60
2017-10-20T04:48:54.757Z,9.60
2017-10-20T04:51:22.749Z,10.00
2017-10-20T04:53:50.600Z,10.40
2017-10-20T04:56:18.375Z,10.30
2017-10-20T04:58:47.152Z,10.30
2017-10-20T05:01:15.206Z,10.30
2017-10-20T05:03:43.240Z,10.10
2017-10-20T05:06:11.204Z,9.90
2017-10-20T05:08:39.746Z,9.50
2017-10-20T05:11:07.690Z,9.50
2017-10-20T05:13:36.086Z,9.40
2017-10-20T05:16:03.870Z,9.30
2017-10-20T05:18:31.806Z,9.30
2017-10-20T05:20:59.595Z,9.20
2017-10-20T05:23:28.294Z,9.30
2017-10-20T05:25:57.034Z,9.10
2017-10-20T05:28:25.114Z,9.10
2017-10-20T05:30:53.923Z,9.10
2017-10-20T05:33:21.712Z,9.00
2017-10-20T05:35:51.272Z,9.00
2017-10-20T05:38:19.207Z,8.90
2017-10-20T05:40:48.045Z,9.00
2017-10-20T05:43:15.915Z,9.00
2017-10-20T05:45:43.744Z,9.00
2017-10-20T05:48:11.643Z,9.00
2017-10-20T05:50:39.383Z,9.10
2017-10-20T05:53:07.276Z,9.20
2017-10-20T05:55:35.153Z,9.20
2017-10-20T05:58:03.017Z,9.10
2017-10-20T06:00:30.763Z,9.30
2017-10-20T06:02:58.531Z,9.40
2017-10-20T06:05:26.402Z,9.60
2017-10-20T06:07:54.151Z,9.70
2017-10-20T06:10:21.937Z,9.70
2017-10-20T06:12:55.108Z,9.70
2017-10-20T06:15:22.996Z,9.70
2017-10-20T06:17:50.942Z,9.70
2017-10-20T06:20:18.744Z,9.70
2017-10-20T06:22:47.391Z,10.00
2017-10-20T06:25:15.156Z,9.90
2017-10-20T06:27:43.653Z,10.00
2017-10-20T06:30:12.245Z,10.20
2017-10-20T06:32:40.137Z,10.20
2017-10-20T06:35:08.674Z,10.50
2017-10-20T06:37:36.435Z,10.50
2017-10-20T06:40:04.402Z,10.60
2017-10-20T06:42:32.283Z,10.70
2017-10-20T06:45:00.066Z,10.80
2017-10-20T06:47:28.443Z,10.90
2017-10-20T06:49:56.481Z,11.10
2017-10-20T06:52:24.370Z,11.20
2017-10-20T06:54:52.196Z,11.20
2017-10-20T06:57:20.910Z,11.50
2017-10-20T06:59:48.906Z,12.00
2017-10-20T07:02:16.683Z,12.70
2017-10-20T07:04:46.387Z,13.40
2017-10-20T07:07:14.326Z,13.30
2017-10-20T07:09:42.279Z,13.10
2017-10-20T07:12:10.164Z,12.50
2017-10-20T07:14:37.957Z,12.20
2017-10-20T07:17:06.620Z,13.40
2017-10-20T07:19:40.528Z,13.40
2017-10-20T07:22:08.368Z,13.90
2017-10-20T07:24:36.236Z,14.70
2017-10-20T07:27:04.205Z,15.20
2017-10-20T07:29:32.087Z,15.80
2017-10-20T07:32:02.725Z,16.10
2017-10-20T07:34:30.518Z,16.10
2017-10-20T07:36:59.149Z,16.20
2017-10-20T07:39:27.035Z,16.10
2017-10-20T07:41:54.904Z,16.50
2017-10-20T07:44:23.299Z,16.30
2017-10-20T07:46:51.176Z,16.30
2017-10-20T07:49:20.039Z,17.50
2017-10-20T07:51:48.010Z,17.50
2017-10-20T07:54:15.855Z,17.70
2017-10-20T07:56:43.681Z,17.70
2017-10-20T07:59:11.542Z,18.40
2017-10-20T08:01:40.100Z,18.20
2017-10-20T08:04:08.219Z,18.10
2017-10-20T08:06:35.987Z,17.90
2017-10-20T08:09:03.839Z,17.50
2017-10-20T08:11:31.960Z,16.40
2017-10-20T08:13:59.731Z,15.40
2017-10-20T08:16:27.604Z,15.00
2017-10-20T08:18:56.263Z,14.90
2017-10-20T08:21:24.052Z,15.00
2017-10-20T08:23:52.137Z,15.30
2017-10-20T08:26:20.189Z,15.20
2017-10-20T08:28:48.071Z,15.10
2017-10-20T08:31:17.066Z,14.90
2017-10-20T08:33:44.922Z,14.90
2017-10-20T08:36:12.696Z,15.20
2017-10-20T08:38:41.258Z,15.30
2017-10-20T08:41:09.966Z,15.30
2017-10-20T08:46:11.927Z,15.90
2017-10-20T08:48:39.729Z,16.10
2017-10-20T08:51:08.381Z,16.30
2017-10-20T08:53:36.328Z,16.30
2017-10-20T08:56:04.432Z,16.60
2017-10-20T08:58:32.289Z,16.50
2017-10-20T09:01:00.237Z,16.60
2017-10-20T09:03:28.106Z,16.70
2017-10-20T09:05:55.988Z,17.00
2017-10-20T09:08:24.153Z,17.20
2017-10-20T09:10:52.192Z,17.30
2017-10-20T09:13:19.995Z,17.50
2017-10-20T09:15:47.781Z,17.60
2017-10-20T09:18:15.567Z,17.90
2017-10-20T09:20:44.237Z,17.50
2017-10-20T09:23:12.797Z,17.50
2017-10-20T09:25:40.893Z,17.50
2017-10-20T09:28:09.452Z,17.50
2017-10-20T09:30:37.294Z,17.50
2017-10-20T09:33:05.931Z,17.40
2017-10-20T09:35:34.494Z,17.40
2017-10-20T09:38:02.267Z,17.40
2017-10-20T09:40:30.843Z,17.40
2017-10-20T09:42:59.388Z,17.60
2017-10-20T09:45:27.473Z,17.60
2017-10-20T09:47:55.241Z,17.70
2017-10-20T09:50:23.110Z,17.80
2017-10-20T09:52:50.993Z,17.80
2017-10-20T09:55:18.755Z,17.90
2017-10-20T09:57:47.312Z,18.10
2017-10-20T10:00:15.177Z,18.10
2017-10-20T10:02:43.271Z,18.10
2017-10-20T10:05:11.219Z,18.00
2017-10-20T10:07:38.978Z,17.90
2017-10-20T10:10:06.766Z,17.80
2017-10-20T10:12:34.713Z,18.10
2017-10-20T10:15:02.697Z,18.20
2017-10-20T10:17:30.654Z,18.20
2017-10-20T10:19:58.727Z,18.10
2017-10-20T10:22:26.699Z,18.30
2017-10-20T10:24:55.289Z,18.30
2017-10-20T10:27:23.272Z,18.20
2017-10-20T10:29:51.181Z,18.30
2017-10-20T10:32:19.091Z,18.50
2017-10-20T10:34:46.904Z,18.60
2017-10-20T10:37:15.970Z,18.80
2017-10-20T10:39:43.825Z,18.80
2017-10-20T10:42:11.590Z,18.90
2017-10-20T10:44:40.896Z,18.90
2017-10-20T10:47:08.738Z,18.80
2017-10-20T10:49:36.737Z,18.60
2017-10-20T10:52:04.677Z,18.70
2017-10-20T10:54:32.567Z,18.70
2017-10-20T10:57:00.431Z,18.70
2017-10-20T10:59:28.430Z,18.20
2017-10-20T11:01:57.036Z,17.10
2017-10-20T11:04:24.948Z,17.10
2017-10-20T11:07:04.911Z,16.80
2017-10-20T11:09:32.812Z,16.70
2017-10-20T11:12:12.802Z,16.60
2017-10-20T11:14:40.685Z,16.50
2017-10-20T11:17:08.544Z,16.40
2017-10-20T11:19:36.317Z,16.30
2017-10-20T11:22:04.288Z,16.10
2017-10-20T11:24:32.165Z,16.20
2017-10-20T11:27:00.104Z,16.20
2017-10-20T11:29:28.068Z,16.30
2017-10-20T11:31:55.914Z,16.30
2017-10-20T11:34:23.775Z,16.40
2017-10-20T11:36:51.670Z,16.30
2017-10-20T11:39:19.537Z,16.30
2017-10-20T11:41:47.355Z,16.40
2017-10-20T11:44:16.123Z,16.40
2017-10-20T11:46:45.161Z,16.40
2017-10-20T11:49:13.171Z,16.40
2017-10-20T11:51:40.947Z,16.40
2017-10-20T11:54:08.739Z,16.50
2017-10-20T11:56:37.411Z,16.60
2017-10-20T11:59:06.033Z,16.80
2017-10-20T12:01:33.939Z,16.70
2017-10-20T12:04:02.831Z,16.90
2017-10-20T12:06:30.804Z,16.80
2017-10-20T12:08:58.876Z,16.90
2017-10-20T12:11:26.734Z,17.00
2017-10-20T12:13:54.585Z,17.10
2017-10-20T12:16:22.467Z,17.10
2017-10-20T12:18:50.355Z,17.20
2017-10-20T12:21:18.919Z,17.30
2017-10-20T12:23:46.681Z,17.20
2017-10-20T12:26:14.633Z,17.20
2017-10-20T12:28:42.412Z,17.20
2017-10-20T12:31:10.269Z,17.40
2017-10-20T12:33:38.130Z,17.50
2017-10-20T12:36:05.972Z,17.50
2017-10-20T12:38:33.861Z,17.70
2017-10-20T12:41:01.731Z,17.90
2017-10-20T12:43:30.026Z,17.90
2017-10-20T12:45:57.852Z,18.10
2017-10-20T12:48:25.616Z,18.30
2017-10-20T12:50:53.408Z,18.40
2017-10-20T12:53:21.269Z,18.40
2017-10-20T12:55:49.666Z,18.50
2017-10-20T12:58:17.452Z,18.70
2017-10-20T13:00:46.574Z,19.30
2017-10-20T13:03:14.387Z,19.30
2017-10-20T13:05:43.085Z,19.20
2017-10-20T13:08:10.889Z,19.20
2017-10-20T13:10:38.893Z,19.30
2017-10-20T13:13:06.676Z,19.40
2017-10-20T13:15:34.727Z,19.60
2017-10-20T13:20:36.706Z,20.00
2017-10-20T13:23:04.709Z,20.20
2017-10-20T13:25:33.277Z,20.20
2017-10-20T13:28:01.230Z,20.10
2017-10-20T13:30:29.011Z,20.20
2017-10-20T13:32:56.988Z,20.30
2017-10-20T13:35:24.949Z,20.60
2017-10-20T13:37:52.902Z,20.80
2017-10-20T13:40:20.832Z,20.70
2017-10-20T13:42:48.648Z,21.00
2017-10-20T13:45:16.603Z,20.90
2017-10-20T13:47:44.396Z,21.00
2017-10-20T13:50:12.337Z,21.10
2017-10-20T13:52:40.208Z,20.90
2017-10-20T13:55:07.987Z,21.10
2017-10-20T13:57:35.877Z,21.00
2017-10-20T14:00:04.535Z,20.50
2017-10-20T14:02:32.502Z,20.50
2017-10-20T14:05:01.401Z,20.20
2017-10-20T14:07:30.064Z,21.10
2017-10-20T14:09:57.931Z,21.10
2017-10-20T14:12:26.001Z,21.40
2017-10-20T14:14:53.884Z,21.70
2017-10-20T14:17:21.761Z,21.60
2017-10-20T14:19:49.544Z,21.30
2017-10-20T14:22:18.205Z,20.50
2017-10-20T14:24:46.077Z,20.40
2017-10-20T14:27:14.739Z,21.20
2017-10-20T14:29:42.537Z,21.10
2017-10-20T14:32:11.320Z,21.00
2017-10-20T14:34:40.077Z,20.50
2017-10-20T14:37:08.676Z,20.40
2017-10-20T14:39:38.166Z,19.80
2017-10-20T14:42:06.667Z,19.20
2017-10-20T14:44:34.433Z,18.60
2017-10-20T14:47:02.484Z,18.50
2017-10-20T14:49:30.557Z,18.50
2017-10-20T14:51:58.431Z,18.40
2017-10-20T14:54:26.304Z,18.20
2017-10-20T14:56:54.280Z,18.20
2017-10-20T14:59:22.139Z,18.20
2017-10-20T15:01:50.950Z,18.30
2017-10-20T15:04:19.525Z,18.30
2017-10-20T15:06:47.312Z,18.30
2017-10-20T15:09:15.823Z,18.20
2017-10-20T15:11:43.804Z,18.20
2017-10-20T15:14:11.677Z,18.10
2017-10-20T15:16:39.463Z,18.00
2017-10-20T15:19:07.324Z,18.10
2017-10-20T15:21:35.184Z,18.00
2017-10-20T15:24:03.308Z,18.00
2017-10-20T15:26:31.230Z,17.90
2017-10-20T15:28:59.003Z,17.70
2017-10-20T15:31:26.943Z,17.60
2017-10-20T15:33:54.799Z,17.60
2017-10-20T15:36:22.555Z,17.70
2017-10-20T15:38:50.396Z,17.70
2017-10-20T15:41:19.341Z,17.50
2017-10-20T15:43:47.211Z,17.40
2017-10-20T15:46:15.134Z,17.30
2017-10-20T15:48:43.051Z,17.20
2017-10-20T15:51:10.824Z,17.20
2017-10-20T15:53:38.767Z,17.10
2017-10-20T15:56:06.752Z,17.10
2017-10-20T15:58:34.587Z,17.00
2017-10-20T16:01:02.372Z,17.00
2017-10-20T16:03:30.251Z,16.90
2017-10-20T16:05:58.110Z,16.80
2017-10-20T16:08:26.020Z,16.80
2017-10-20T16:10:54.518Z,16.70
2017-10-20T16:13:22.255Z,16.70
2017-10-20T16:15:50.923Z,16.50
2017-10-20T16:18:18.887Z,16.40
2017-10-20T16:20:46.717Z,16.50
2017-10-20T16:23:14.553Z,16.40
2017-10-20T16:25:43.179Z,16.40
2017-10-20T16:28:11.263Z,16.30
2017-10-20T16:30:39.145Z,16.40
2017-10-20T16:33:07.054Z,16.20
2017-10-20T16:35:34.805Z,16.10
2017-10-20T16:38:03.538Z,16.00
2017-10-20T16:40:32.041Z,16.00
2017-10-20T16:42:59.989Z,15.80
2017-10-20T16:45:29.204Z,15.80
2017-10-20T16:47:57.073Z,15.70
2017-10-20T16:50:27.518Z,15.70
2017-10-20T16:52:55.463Z,15.60
2017-10-20T16:55:23.637Z,15.50
2017-10-20T16:57:51.922Z,15.50
2017-10-20T17:00:19.795Z,15.60
2017-10-20T17:02:48.450Z,15.50
2017-10-20T17:05:16.418Z,15.50
2017-10-20T17:07:45.343Z,15.40
2017-10-20T17:10:13.891Z,15.40
2017-10-20T17:12:41.678Z,15.40
2017-10-20T17:15:10.342Z,15.00
2017-10-20T17:17:38.336Z,15.00
2017-10-20T17:20:06.191Z,14.80
2017-10-20T17:22:35.169Z,14.50
2017-10-20T17:25:02.948Z,14.30
2017-10-20T17:27:30.821Z,14.10
2017-10-20T17:29:58.652Z,14.00
2017-10-20T17:32:26.572Z,13.80
2017-10-20T17:34:54.713Z,14.00
2017-10-20T17:37:22.814Z,14.10
2017-10-20T17:39:50.669Z,14.10
2017-10-20T17:42:18.543Z,13.80
2017-10-20T17:44:46.395Z,13.90
2017-10-20T17:47:14.170Z,13.70
2017-10-20T17:49:42.361Z,13.60
2017-10-20T17:52:11.134Z,13.90
2017-10-20T17:54:39.201Z,13.90
2017-10-20T17:57:06.981Z,13.70
2017-10-20T17:59:35.630Z,14.00
2017-10-20T18:02:03.592Z,14.00
2017-10-20T18:04:31.524Z,14.00
2017-10-20T18:06:59.371Z,13.80
2017-10-20T18:09:27.293Z,13.70
2017-10-20T18:11:55.266Z,13.50
2017-10-20T18:14:33.578Z,13.50
2017-10-20T18:17:01.649Z,13.30
2017-10-20T18:19:29.550Z,13.10
2017-10-20T18:21:58.402Z,13.00
2017-10-20T18:24:26.405Z,13.00
2017-10-20T18:26:54.455Z,13.10
2017-10-20T18:29:22.345Z,13.10
2017-10-20T18:31:50.156Z,13.20
2017-10-20T18:34:18.351Z,13.30
2017-10-20T18:36:46.731Z,13.40
2017-10-20T18:39:14.805Z,13.20
2017-10-20T18:41:42.710Z,13.20
2017-10-20T18:44:11.526Z,13.10
2017-10-20T18:46:39.673Z,13.10
2017-10-20T18:49:08.261Z,12.90
2017-10-20T18:51:36.999Z,12.90
2017-10-20T18:54:04.910Z,12.90
2017-10-20T18:56:33.701Z,12.80
2017-10-20T18:59:02.542Z,12.70
2017-10-20T19:01:30.414Z,12.70
2017-10-20T19:03:58.354Z,12.70
2017-10-20T19:06:26.455Z,12.70
2017-10-20T19:08:54.239Z,12.90
2017-10-20T19:11:22.117Z,13.20
2017-10-20T19:13:50.053Z,13.30
2017-10-20T19:16:18.024Z,13.30
2017-10-20T19:18:45.790Z,13.70
2017-10-20T19:21:13.905Z,14.20
2017-10-20T19:23:42.852Z,14.10
2017-10-20T19:26:10.772Z,14.10
2017-10-20T19:28:39.435Z,14.60
2017-10-20T19:31:08.405Z,14.60
2017-10-20T19:33:36.578Z,14.50
2017-10-20T19:36:04.518Z,14.60
2017-10-20T19:38:32.507Z,14.40
2017-10-20T19:41:00.485Z,14.20
2017-10-20T19:43:28.600Z,14.20
2017-10-20T19:45:57.475Z,14.30
2017-10-20T19:48:26.173Z,14.30
2017-10-20T19:50:54.919Z,14.40
2017-10-20T19:53:23.642Z,14.40
2017-10-20T19:55:52.291Z,14.40
2017-10-20T19:58:20.274Z,14.40
2017-10-20T20:00:48.425Z,14.40
2017-10-20T20:03:16.492Z,14.30
2017-10-20T20:05:44.498Z,14.30
2017-10-20T20:08:12.566Z,14.10
2017-10-20T20:10:40.537Z,14.10
2017-10-20T20:13:08.449Z,14.10
2017-10-20T20:15:36.381Z,13.90
2017-10-20T20:18:05.043Z,14.00
2017-10-20T20:20:33.016Z,14.00
2017-10-20T20:23:00.964Z,14.10
2017-10-20T20:25:28.920Z,14.20
2017-10-20T20:27:57.719Z,14.10
2017-10-20T20:30:26.234Z,14.10
2017-10-20T20:32:58.812Z,14.40
2017-10-20T20:35:26.773Z,14.40
2017-10-20T20:37:54.628Z,14.50
2017-10-20T20:40:22.582Z,14.60
2017-10-20T20:42:50.482Z,14.60
2017-10-20T20:45:18.434Z,14.60
2017-10-20T20:47:46.307Z,14.60
2017-10-20T20:50:14.065Z,14.50
2017-10-20T20:52:42.015Z,14.50
2017-10-20T20:55:09.881Z,14.50
2017-10-20T20:57:37.676Z,14.50
2017-10-20T21:00:07.047Z,14.40
2017-10-20T21:02:35.124Z,14.40
2017-10-20T21:05:03.053Z,14.40
2017-10-20T21:07:30.980Z,14.30
2017-10-20T21:09:58.840Z,14.20
2017-10-20T21:12:26.708Z,14.20
2017-10-20T21:14:54.689Z,14.20
2017-10-20T21:17:22.639Z,14.30
2017-10-20T21:19:50.520Z,14.40
2017-10-20T21:22:18.581Z,14.40
2017-10-20T21:24:48.884Z,14.40
2017-10-20T21:27:17.526Z,14.40
2017-10-20T21:29:45.438Z,14.30
2017-10-20T21:32:13.194Z,14.30
2017-10-20T21:34:40.985Z,14.40
2017-10-20T21:37:08.848Z,14.50
2017-10-20T21:39:36.800Z,14.50
2017-10-20T21:42:04.705Z,14.40
2017-10-20T21:44:33.270Z,14.30
2017-10-20T21:47:01.071Z,14.30
2017-10-20T21:49:29.116Z,14.30
2017-10-20T21:51:56.971Z,14.30
2017-10-20T21:54:24.949Z,14.40
2017-10-20T21:56:52.836Z,14.40
2017-10-20T21:59:22.104Z,14.60
2017-10-20T22:01:49.940Z,14.60
2017-10-20T22:04:17.866Z,14.60
2017-10-20T22:06:46.388Z,14.40
2017-10-20T22:09:14.286Z,14.40
2017-10-20T22:11:42.072Z,14.40
2017-10-20T22:14:09.898Z,14.20
2017-10-20T22:16:38.743Z,14.10
2017-10-20T22:19:07.476Z,14.00
2017-10-20T22:24:09.954Z,14.00
2017-10-20T22:26:37.704Z,13.90
2017-10-20T22:29:05.599Z,14.00
2017-10-20T22:31:33.469Z,14.00
2017-10-20T22:34:01.303Z,14.00
2017-10-20T22:36:29.119Z,14.20
2017-10-20T22:38:56.984Z,14.10
2017-10-20T22:41:24.848Z,14.10
2017-10-20T22:43:52.620Z,14.20
2017-10-20T22:46:20.422Z,14.30
2017-10-20T22:48:48.344Z,14.30
2017-10-20T22:51:16.319Z,14.30
2017-10-20T22:53:44.163Z,14.30
2017-10-20T22:56:12.059Z,14.20
2017-10-20T22:58:39.911Z,14.20
2017-10-20T23:01:07.673Z,14.20
2017-10-20T23:03:35.757Z,14.20
2017-10-20T23:06:03.511Z,14.20
2017-10-20T23:08:31.377Z,14.40
2017-10-20T23:11:00.165Z,14.30
2017-10-20T23:13:28.051Z,14.30
2017-10-20T23:15:56.614Z,14.20
2017-10-20T23:18:24.403Z,14.20
2017-10-20T23:20:52.993Z,14.10
2017-10-20T23:23:21.546Z,14.00
2017-10-20T23:25:49.420Z,14.00
2017-10-20T23:28:17.379Z,13.90
2017-10-20T23:30:45.187Z,13.80
2017-10-20T23:33:13.845Z,13.80
2017-10-20T23:35:41.730Z,13.80
2017-10-20T23:38:10.282Z,13.90
2017-10-20T23:40:38.152Z,13.90
2017-10-20T23:43:05.924Z,13.90
2017-10-20T23:45:33.864Z,14.00
2017-10-20T23:48:01.744Z,14.10
2017-10-20T23:50:29.600Z,14.20
2017-10-20T23:52:58.098Z,14.10
2017-10-20T23:55:25.854Z,14.10
2017-10-20T23:57:53.707Z,14.10
